Time;durP1;ratioP1;P1;durP2;ratioP2;P2;SDS_P1;SDS_P2;PMS_P1;PMS_P2;Temp;Humidity;BMP_temperature;BMP_pressure;BME280_temperature;BME280_humidity;BME280_pressure;Samples;Min_cycle;Max_cycle;Signal;HPM_P1;HPM_P2
2022/01/28 00:04:46;;;;;;;323.85;306.02;;;5.30;99.90;;;;;;5072874;28;20371;-61
2022/01/28 00:07:12;;;;;;;356.73;334.33;;;5.30;99.90;;;;;;5073502;28;20055;-61
2022/01/28 00:09:38;;;;;;;339.00;318.02;;;5.30;99.90;;;;;;5073011;28;20040;-61
2022/01/28 00:12:04;;;;;;;300.73;284.75;;;5.30;99.90;;;;;;5072829;28;20047;-61
2022/01/28 00:14:41;;;;;;;310.85;293.83;;;5.30;99.90;;;;;;5073430;28;20056;-62
2022/01/28 00:20:38;;;;;;;329.63;311.05;;;5.30;99.90;;;;;;5053135;28;20044;-61
2022/01/28 00:38:47;;;;;;;270.77;257.25;;;5.40;99.90;;;;;;5072742;28;20545;-61
2022/01/28 00:41:14;;;;;;;238.23;226.20;;;5.30;99.90;;;;;;5073166;28;20172;-61
2022/01/28 00:43:39;;;;;;;218.27;207.57;;;5.30;99.90;;;;;;5072044;28;20091;-61
2022/01/28 00:46:05;;;;;;;231.63;220.05;;;5.20;99.90;;;;;;5071867;28;20470;-62
2022/01/28 00:48:31;;;;;;;274.20;259.25;;;5.20;99.90;;;;;;5061821;28;20044;-62
2022/01/28 00:50:57;;;;;;;295.98;279.00;;;5.20;99.90;;;;;;5051954;28;20041;-60
2022/01/28 00:53:22;;;;;;;221.52;209.93;;;5.20;99.90;;;;;;5052967;28;20063;-62
2022/01/28 00:55:48;;;;;;;423.75;394.08;;;5.20;99.90;;;;;;5055713;28;20057;-62
2022/01/28 00:58:14;;;;;;;433.30;405.63;;;5.20;99.90;;;;;;5071895;28;20044;-61
2022/01/28 01:00:40;;;;;;;345.05;326.20;;;5.30;99.90;;;;;;5073029;28;20052;-61
2022/01/28 01:03:06;;;;;;;300.05;283.38;;;5.30;99.90;;;;;;5072503;28;20044;-62
2022/01/28 01:05:34;;;;;;;415.25;389.58;;;5.20;99.90;;;;;;5071330;28;20045;-62
2022/01/28 01:08:01;;;;;;;275.65;260.13;;;5.20;99.90;;;;;;5072687;28;20105;-61
2022/01/28 01:10:28;;;;;;;247.40;234.93;;;5.20;99.90;;;;;;5071456;28;20048;-62
2022/01/28 01:12:54;;;;;;;298.20;282.38;;;5.20;99.90;;;;;;5071711;28;20040;-61
2022/01/28 01:15:24;;;;;;;250.77;236.88;;;5.10;99.90;;;;;;5072262;28;20485;-61
2022/01/28 01:23:10;;;;;;;333.17;313.73;;;5.00;99.90;;;;;;5052428;28;20068;-61
2022/01/28 01:25:46;;;;;;;415.67;389.17;;;4.90;99.90;;;;;;5051912;28;20569;-61
2022/01/28 01:28:13;;;;;;;364.13;342.75;;;4.90;99.90;;;;;;5052200;28;20279;-61
2022/01/28 01:30:42;;;;;;;334.15;314.85;;;4.90;99.90;;;;;;5052795;28;20081;-61
2022/01/28 01:33:09;;;;;;;288.65;271.38;;;4.90;99.90;;;;;;5070772;28;20080;-61
2022/01/28 01:35:36;;;;;;;246.10;233.38;;;4.80;99.90;;;;;;5072104;28;20095;-61
2022/01/28 01:38:03;;;;;;;233.85;221.75;;;4.80;99.90;;;;;;5072551;28;20051;-61
2022/01/28 01:40:35;;;;;;;282.92;267.58;;;4.80;99.90;;;;;;5071328;28;20402;-61
2022/01/28 01:43:10;;;;;;;328.30;310.23;;;4.80;99.90;;;;;;5072357;28;20059;-61
2022/01/28 01:45:52;;;;;;;425.73;401.08;;;4.80;99.90;;;;;;5072299;28;20287;-61
2022/01/28 01:53:46;;;;;;;298.95;283.02;;;5.10;99.90;;;;;;5031810;28;20132;-61
2022/01/28 01:56:12;;;;;;;289.42;273.25;;;5.20;99.90;;;;;;5032004;28;20124;-62
2022/01/28 01:58:40;;;;;;;307.20;289.67;;;5.20;99.90;;;;;;5053417;28;20037;-61
2022/01/28 02:01:06;;;;;;;280.23;263.83;;;5.30;99.90;;;;;;5071592;28;20102;-61
2022/01/28 02:03:32;;;;;;;286.52;269.75;;;5.30;99.90;;;;;;5071998;28;20056;-61
2022/01/28 02:05:59;;;;;;;295.98;279.33;;;5.40;99.90;;;;;;5072224;28;20055;-61
2022/01/28 02:08:26;;;;;;;253.07;238.93;;;5.50;99.90;;;;;;5070717;28;20084;-61
2022/01/28 02:10:57;;;;;;;295.90;280.10;;;5.50;99.90;;;;;;5071773;28;20456;-61
2022/01/28 02:13:25;;;;;;;271.42;256.00;;;5.50;99.90;;;;;;5072361;28;20040;-61
2022/01/28 02:15:52;;;;;;;263.67;249.70;;;5.50;99.90;;;;;;5071800;28;20192;-61
2022/01/28 02:18:18;;;;;;;257.65;243.27;;;5.60;99.90;;;;;;5062617;28;20053;-61
2022/01/28 02:20:48;;;;;;;277.83;262.98;;;5.70;99.90;;;;;;5054616;28;20057;-62
2022/01/28 02:23:14;;;;;;;301.48;285.25;;;5.70;99.90;;;;;;5053551;28;20055;-61
2022/01/28 02:25:40;;;;;;;246.52;233.35;;;5.80;99.90;;;;;;5069340;28;20115;-62
2022/01/28 02:28:09;;;;;;;291.88;275.23;;;5.80;99.90;;;;;;5075527;28;20037;-62
2022/01/28 02:30:35;;;;;;;274.23;259.00;;;5.80;99.90;;;;;;5074763;28;20045;-61
2022/01/28 02:33:10;;;;;;;258.35;245.70;;;5.80;99.90;;;;;;5074782;28;20050;-61
2022/01/28 02:35:37;;;;;;;359.95;339.15;;;5.80;99.90;;;;;;5074614;28;20072;-61
2022/01/28 02:38:03;;;;;;;309.85;293.50;;;5.80;99.90;;;;;;5075624;28;20426;-61
2022/01/28 02:40:29;;;;;;;366.13;344.13;;;5.80;99.90;;;;;;5074926;28;20045;-62
2022/01/28 02:43:01;;;;;;;455.65;425.52;;;5.80;99.90;;;;;;5074195;28;20040;-61
2022/01/28 02:45:33;;;;;;;272.38;258.48;;;5.80;99.90;;;;;;5075184;28;20048;-62
2022/01/28 02:48:03;;;;;;;389.85;366.92;;;5.80;99.90;;;;;;5069042;28;20041;-61
2022/01/28 02:50:36;;;;;;;307.00;290.30;;;5.80;99.90;;;;;;5054458;28;20049;-62
2022/01/28 02:53:05;;;;;;;;;;;5.80;99.90;;;;;;5034250;28;20442;-61
2022/01/28 02:55:35;;;;;;;337.60;319.40;;;5.80;99.90;;;;;;5033300;28;20337;-62
2022/01/28 02:58:19;;;;;;;309.98;293.30;;;5.80;99.90;;;;;;5034374;28;20384;-62
2022/01/28 03:00:47;;;;;;;303.20;287.20;;;5.80;99.90;;;;;;5058744;28;20076;-62
2022/01/28 03:03:14;;;;;;;254.65;240.82;;;5.90;99.90;;;;;;5074751;28;20395;-63
2022/01/28 03:05:41;;;;;;;241.70;228.85;;;5.90;99.90;;;;;;5072652;28;20052;-62
2022/01/28 03:08:07;;;;;;;270.00;255.93;;;5.90;99.90;;;;;;5074364;28;20556;-62
2022/01/28 03:15:26;;;;;;;281.88;266.50;;;5.80;99.90;;;;;;5074549;28;20060;-62
2022/01/28 03:18:06;;;;;;;311.85;294.50;;;5.90;99.90;;;;;;5071261;28;20048;-62
2022/01/28 03:20:40;;;;;;;316.88;299.75;;;5.90;99.90;;;;;;5056855;28;20059;-61
2022/01/28 03:23:06;;;;;;;257.40;244.20;;;5.90;99.90;;;;;;5054736;28;20085;-61
2022/01/28 03:25:35;;;;;;;303.35;287.38;;;5.90;99.90;;;;;;5053386;28;20076;-61
2022/01/28 03:28:01;;;;;;;328.70;309.67;;;5.90;99.90;;;;;;5071912;28;20143;-62
2022/01/28 03:30:27;;;;;;;253.60;240.27;;;5.80;99.90;;;;;;5074385;28;20163;-61
2022/01/28 03:32:53;;;;;;;283.33;268.33;;;5.90;99.90;;;;;;5073573;28;20477;-61
2022/01/28 03:35:19;;;;;;;240.32;227.90;;;5.90;99.90;;;;;;5073383;28;20036;-62
2022/01/28 03:37:45;;;;;;;374.27;352.65;;;5.90;99.90;;;;;;5074352;28;20498;-62
2022/01/28 03:40:12;;;;;;;241.68;229.23;;;5.90;99.90;;;;;;5073326;28;20047;-61
2022/01/28 03:42:38;;;;;;;303.02;286.88;;;6.00;99.90;;;;;;5074073;28;20051;-61
2022/01/28 03:45:05;;;;;;;251.88;238.77;;;5.90;99.90;;;;;;5073362;28;20048;-62
2022/01/28 03:47:31;;;;;;;297.58;281.25;;;5.90;99.90;;;;;;5070919;28;20048;-62
2022/01/28 03:49:57;;;;;;;308.30;291.20;;;5.90;99.90;;;;;;5053830;28;20041;-62
2022/01/28 03:52:23;;;;;;;329.23;311.83;;;6.00;99.90;;;;;;5054015;28;20047;-62
2022/01/28 03:54:48;;;;;;;313.05;296.98;;;6.00;99.90;;;;;;5072471;28;20045;-62
2022/01/28 03:57:14;;;;;;;351.02;331.73;;;6.00;99.90;;;;;;5073776;28;20516;-62
2022/01/28 03:59:40;;;;;;;413.45;390.23;;;5.90;99.90;;;;;;5073790;28;20083;-61
2022/01/28 04:02:06;;;;;;;372.20;350.50;;;5.90;99.90;;;;;;5072238;28;20056;-61
2022/01/28 04:12:40;;;;;;;288.88;272.45;;;5.80;99.90;;;;;;5073438;28;20367;-63
2022/01/28 04:15:35;;;;;;;272.40;258.50;;;5.80;99.90;;;;;;5072895;28;20047;-61
2022/01/28 04:18:01;;;;;;;314.77;295.33;;;5.80;99.90;;;;;;5062999;28;20060;-62
2022/01/28 04:20:27;;;;;;;328.08;306.58;;;5.70;99.90;;;;;;5065233;28;20048;-62
2022/01/28 04:22:53;;;;;;;282.80;266.50;;;5.80;99.90;;;;;;5072845;28;20048;-61
2022/01/28 04:25:18;;;;;;;258.77;244.63;;;5.80;99.90;;;;;;5073005;28;20123;-62
2022/01/28 04:27:44;;;;;;;292.23;274.85;;;5.90;99.90;;;;;;5073291;28;20036;-61
2022/01/28 04:30:10;;;;;;;321.05;303.15;;;5.90;99.90;;;;;;5052816;28;20130;-61
2022/01/28 04:32:38;;;;;;;266.27;251.10;;;5.90;99.90;;;;;;5052855;28;20517;-61
2022/01/28 04:35:04;;;;;;;386.80;362.85;;;5.90;99.90;;;;;;5052427;28;20430;-62
2022/01/28 04:37:42;;;;;;;329.83;308.50;;;5.90;99.90;;;;;;5059524;28;20048;-62
2022/01/28 04:40:17;;;;;;;431.67;401.30;;;5.90;99.90;;;;;;5072370;28;20487;-62
2022/01/28 04:45:23;;;;;;;253.70;239.13;;;5.90;99.90;;;;;;5073040;28;20044;-62
2022/01/28 04:50:28;;;;;;;319.85;299.92;;;5.80;99.90;;;;;;5032312;28;20128;-63
2022/01/28 04:53:09;;;;;;;266.77;250.32;;;5.70;99.90;;;;;;5033150;28;20136;-62
2022/01/28 04:58:22;;;;;;;255.45;238.88;;;5.70;99.90;;;;;;5072351;28;20137;-62
2022/01/28 05:01:22;;;;;;;262.92;247.50;;;5.60;99.90;;;;;;5072758;28;20048;-63
2022/01/28 05:09:40;;;;;;;169.80;160.57;;;5.50;99.90;;;;;;5072267;28;20157;-61
2022/01/28 05:23:20;;;;;;;255.07;239.85;;;5.50;99.90;;;;;;5069554;28;20434;-62
2022/01/28 05:25:50;;;;;;;278.88;261.98;;;5.60;99.90;;;;;;5071604;28;20052;-61
2022/01/28 05:28:19;;;;;;;355.45;333.85;;;5.60;99.90;;;;;;5072758;28;20086;-62
2022/01/28 05:30:45;;;;;;;354.67;333.33;;;5.60;99.90;;;;;;5071620;28;20406;-62
2022/01/28 05:33:11;;;;;;;379.85;357.10;;;5.70;99.90;;;;;;5071782;28;20120;-62
2022/01/28 05:35:37;;;;;;;296.58;279.33;;;5.70;99.90;;;;;;5072653;28;20041;-61
2022/01/28 05:38:03;;;;;;;234.23;221.32;;;5.70;99.90;;;;;;5072009;28;20043;-62
2022/01/28 05:40:28;;;;;;;269.77;255.73;;;5.70;99.90;;;;;;5071346;28;20041;-62
2022/01/28 05:42:54;;;;;;;248.90;235.30;;;5.70;99.90;;;;;;5072596;28;20451;-62
2022/01/28 05:45:20;;;;;;;302.23;285.80;;;5.80;99.90;;;;;;5071393;28;20045;-63
2022/01/28 05:47:45;;;;;;;317.67;299.65;;;5.80;99.90;;;;;;5070374;28;20487;-62
2022/01/28 05:50:12;;;;;;;292.30;275.35;;;5.80;99.90;;;;;;5070989;28;20109;-63
2022/01/28 05:52:38;;;;;;;259.77;243.48;;;5.70;99.90;;;;;;5075321;28;20457;-62
2022/01/28 05:55:05;;;;;;;378.27;355.48;;;5.80;99.90;;;;;;5076379;28;20056;-62
2022/01/28 05:57:30;;;;;;;280.73;265.38;;;5.70;99.90;;;;;;5075637;28;20040;-63
2022/01/28 05:59:56;;;;;;;297.52;281.08;;;5.70;99.90;;;;;;5074885;28;20479;-63
2022/01/28 06:02:22;;;;;;;275.38;259.38;;;5.60;99.90;;;;;;5076296;28;20050;-63
2022/01/28 06:04:48;;;;;;;197.93;187.13;;;5.60;99.90;;;;;;5075755;28;20505;-62
2022/01/28 06:07:14;;;;;;;207.70;195.57;;;5.50;99.90;;;;;;5074205;28;20418;-63
2022/01/28 06:09:39;;;;;;;312.60;293.42;;;5.40;99.90;;;;;;5076006;28;20055;-62
2022/01/28 06:12:06;;;;;;;203.52;192.75;;;5.50;99.90;;;;;;5075909;28;20049;-63
2022/01/28 06:14:31;;;;;;;216.20;203.85;;;5.60;99.90;;;;;;5074277;28;20041;-63
2022/01/28 06:16:57;;;;;;;210.93;197.77;;;5.60;99.90;;;;;;5074258;28;20494;-62
2022/01/28 06:19:23;;;;;;;212.15;199.18;;;5.60;99.90;;;;;;5055583;28;20052;-62
2022/01/28 06:21:49;;;;;;;215.25;202.07;;;5.60;99.90;;;;;;5054665;28;20049;-63
2022/01/28 06:24:14;;;;;;;203.95;192.05;;;5.60;99.90;;;;;;5066738;28;20382;-62
2022/01/28 06:26:41;;;;;;;217.82;205.25;;;5.50;99.90;;;;;;5075518;28;20485;-62
2022/01/28 06:29:07;;;;;;;216.30;203.13;;;5.50;99.90;;;;;;5074902;28;20054;-62
2022/01/28 06:31:33;;;;;;;306.75;286.90;;;5.60;99.90;;;;;;5075202;28;20048;-63
2022/01/28 06:33:59;;;;;;;260.20;244.38;;;5.60;99.90;;;;;;5074828;28;20498;-62
2022/01/28 06:36:25;;;;;;;328.02;309.77;;;5.60;99.90;;;;;;5074313;28;20040;-62
2022/01/28 06:38:50;;;;;;;307.67;289.27;;;5.60;99.90;;;;;;5075280;28;20045;-63
2022/01/28 06:41:16;;;;;;;291.05;274.02;;;5.60;99.90;;;;;;5069035;28;20505;-63
2022/01/28 06:43:42;;;;;;;293.45;276.88;;;5.60;99.90;;;;;;5054689;28;20470;-63
2022/01/28 06:46:08;;;;;;;282.50;266.48;;;5.60;99.90;;;;;;5054720;28;20041;-63
2022/01/28 06:48:33;;;;;;;264.70;249.85;;;5.60;99.90;;;;;;5054428;28;20127;-62
2022/01/28 06:50:59;;;;;;;287.13;271.15;;;5.50;99.90;;;;;;5067816;28;20044;-63
2022/01/28 06:53:25;;;;;;;292.75;275.75;;;5.50;99.90;;;;;;5074789;28;20036;-63
2022/01/28 06:55:51;;;;;;;307.45;289.20;;;5.40;99.90;;;;;;5074328;28;20119;-63
2022/01/28 06:58:16;;;;;;;276.70;261.55;;;5.40;99.90;;;;;;5074259;28;20504;-63
2022/01/28 07:00:42;;;;;;;292.70;275.83;;;5.50;99.90;;;;;;5054834;28;20060;-62
2022/01/28 07:03:10;;;;;;;289.13;272.98;;;5.50;99.90;;;;;;5053961;28;20056;-63
2022/01/28 07:05:37;;;;;;;299.08;282.00;;;5.40;99.90;;;;;;5054760;28;20049;-62
2022/01/28 07:08:04;;;;;;;307.88;290.02;;;5.40;99.90;;;;;;5062046;28;20045;-62
2022/01/28 07:10:31;;;;;;;320.35;300.70;;;5.40;99.90;;;;;;5074232;28;20052;-62
2022/01/28 07:12:56;;;;;;;304.27;286.98;;;5.30;99.90;;;;;;5074687;28;20047;-62
2022/01/28 07:15:24;;;;;;;286.95;269.63;;;5.40;99.90;;;;;;5074513;28;20128;-61
2022/01/28 07:17:52;;;;;;;244.13;229.05;;;5.40;99.90;;;;;;5057128;28;20556;-63
2022/01/28 07:20:18;;;;;;;252.68;238.07;;;5.30;99.90;;;;;;5049825;28;20390;-62
2022/01/28 07:22:44;;;;;;;287.65;271.17;;;5.30;99.90;;;;;;5054473;28;20052;-62
2022/01/28 07:25:10;;;;;;;234.52;221.88;;;5.30;99.90;;;;;;5056607;28;20036;-63
2022/01/28 07:27:36;;;;;;;249.60;235.30;;;5.30;99.90;;;;;;5055003;28;20087;-62
2022/01/28 07:30:03;;;;;;;266.75;251.32;;;5.20;99.90;;;;;;5050999;28;20036;-62
2022/01/28 07:32:28;;;;;;;225.98;213.18;;;5.30;99.90;;;;;;5052379;28;20127;-62
2022/01/28 07:34:54;;;;;;;219.90;208.05;;;5.30;99.90;;;;;;5053895;28;20124;-62
2022/01/28 07:37:20;;;;;;;254.07;239.18;;;5.20;99.90;;;;;;5053694;28;20071;-62
2022/01/28 07:39:46;;;;;;;226.80;214.50;;;5.30;99.90;;;;;;5053077;28;20045;-62
2022/01/28 07:42:12;;;;;;;210.73;199.43;;;5.30;99.90;;;;;;5053433;28;20045;-62
2022/01/28 07:44:37;;;;;;;241.55;228.00;;;5.30;99.90;;;;;;5054566;28;20167;-62
2022/01/28 07:47:04;;;;;;;233.05;220.57;;;5.30;99.90;;;;;;5052798;28;20049;-63
2022/01/28 07:49:30;;;;;;;210.23;198.32;;;5.30;99.90;;;;;;5050781;28;20410;-62
2022/01/28 07:51:56;;;;;;;243.77;229.63;;;5.30;99.90;;;;;;5052746;28;20041;-62
2022/01/28 07:54:22;;;;;;;225.18;212.55;;;5.20;99.90;;;;;;5053562;28;20033;-62
2022/01/28 07:56:52;;;;;;;256.85;243.07;;;5.30;99.90;;;;;;5053551;28;20554;-62
2022/01/28 07:59:18;;;;;;;280.67;265.58;;;5.30;99.90;;;;;;5052822;28;20059;-62
2022/01/28 08:01:44;;;;;;;211.68;199.52;;;5.30;99.90;;;;;;5065889;28;20048;-63
2022/01/28 08:04:09;;;;;;;224.63;211.63;;;5.30;99.90;;;;;;5073858;28;20256;-63
2022/01/28 08:06:35;;;;;;;184.63;174.05;;;5.30;99.90;;;;;;5072449;28;20056;-63
2022/01/28 08:09:02;;;;;;;215.48;203.32;;;5.20;99.90;;;;;;5067261;28;20052;-62
2022/01/28 08:11:28;;;;;;;202.98;191.57;;;5.20;99.90;;;;;;5053600;28;20045;-62
2022/01/28 08:13:55;;;;;;;240.85;226.85;;;5.20;99.90;;;;;;5051968;28;20059;-61
2022/01/28 08:16:21;;;;;;;236.32;223.48;;;5.20;99.90;;;;;;5053254;28;20037;-62
2022/01/28 08:18:47;;;;;;;223.98;211.60;;;5.30;99.90;;;;;;5050202;28;20049;-62
2022/01/28 08:21:15;;;;;;;220.85;207.85;;;5.20;99.90;;;;;;5052646;28;20095;-62
2022/01/28 08:23:40;;;;;;;226.45;213.02;;;5.10;99.90;;;;;;5053471;28;20045;-62
2022/01/28 08:26:07;;;;;;;238.25;224.35;;;5.10;99.90;;;;;;5053175;28;20094;-62
2022/01/28 08:28:34;;;;;;;254.10;239.73;;;5.20;99.90;;;;;;5066904;28;20076;-62
2022/01/28 08:31:00;;;;;;;268.10;252.48;;;5.20;99.90;;;;;;5073032;28;20077;-62
2022/01/28 08:33:27;;;;;;;241.32;227.35;;;5.20;99.90;;;;;;5073261;28;20106;-62
2022/01/28 08:35:54;;;;;;;241.93;227.90;;;5.30;99.90;;;;;;5071661;28;20048;-62
2022/01/28 08:38:27;;;;;;;249.73;236.13;;;5.40;99.90;;;;;;5073228;28;20124;-62
2022/01/28 08:40:56;;;;;;;244.48;229.82;;;5.50;99.90;;;;;;5072034;28;20049;-62
2022/01/28 08:43:23;;;;;;;254.85;241.40;;;5.50;99.90;;;;;;5071840;28;20049;-62
2022/01/28 08:45:49;;;;;;;261.05;246.45;;;5.50;99.90;;;;;;5072514;28;20041;-62
2022/01/28 08:48:15;;;;;;;225.43;213.18;;;5.50;99.90;;;;;;5072345;28;20062;-62
2022/01/28 08:50:41;;;;;;;251.40;237.27;;;5.60;99.90;;;;;;5071720;28;20577;-62
2022/01/28 08:53:07;;;;;;;226.13;213.75;;;5.60;99.90;;;;;;5072768;28;20105;-62
2022/01/28 08:55:33;;;;;;;235.07;222.38;;;5.60;99.90;;;;;;5071510;28;20109;-62
2022/01/28 08:57:59;;;;;;;251.20;238.18;;;5.70;99.90;;;;;;5072722;28;20190;-62
2022/01/28 09:00:24;;;;;;;240.52;228.35;;;5.70;99.90;;;;;;5073032;28;20513;-62
2022/01/28 09:02:50;;;;;;;253.00;239.05;;;5.70;99.90;;;;;;5071786;28;20057;-63
2022/01/28 09:05:17;;;;;;;243.88;230.25;;;5.70;99.90;;;;;;5072519;28;20080;-63
2022/01/28 09:07:43;;;;;;;257.70;243.80;;;5.70;99.90;;;;;;5072656;28;20558;-62
2022/01/28 09:10:17;;;;;;;243.80;230.85;;;5.80;99.90;;;;;;5054796;28;20129;-61
2022/01/28 09:12:59;;;;;;;235.27;222.63;;;6.00;99.90;;;;;;5051386;28;20131;-62
2022/01/28 09:15:25;;;;;;;268.42;254.80;;;6.10;99.90;;;;;;5052645;28;20049;-63
2022/01/28 09:17:51;;;;;;;247.90;233.88;;;6.20;99.90;;;;;;5043369;28;20075;-62
2022/01/28 09:20:17;;;;;;;241.77;228.85;;;6.20;99.90;;;;;;5049548;28;20136;-62
2022/01/28 09:22:43;;;;;;;217.57;205.77;;;6.20;99.90;;;;;;5052581;28;20049;-62
2022/01/28 09:25:08;;;;;;;229.32;217.10;;;6.20;99.90;;;;;;5053217;28;20140;-62
2022/01/28 09:27:34;;;;;;;226.68;213.82;;;6.20;99.90;;;;;;5056585;28;20048;-63
2022/01/28 09:30:00;;;;;;;212.60;200.40;;;6.20;99.90;;;;;;5067445;28;20494;-63
2022/01/28 09:32:26;;;;;;;220.48;208.73;;;6.10;99.90;;;;;;5076017;28;20098;-62
2022/01/28 09:34:51;;;;;;;229.65;217.45;;;6.10;99.90;;;;;;5075965;28;20048;-62
2022/01/28 09:37:17;;;;;;;209.93;197.88;;;6.20;99.90;;;;;;5076565;28;20037;-62
2022/01/28 09:39:44;;;;;;;216.07;204.23;;;6.10;99.90;;;;;;5075333;28;20060;-62
2022/01/28 09:42:14;;;;;;;216.48;204.88;;;6.20;99.90;;;;;;5076175;28;20091;-62
2022/01/28 09:44:42;;;;;;;221.48;208.68;;;6.20;99.90;;;;;;5075677;28;20048;-62
2022/01/28 09:47:10;;;;;;;213.80;201.98;;;6.20;99.90;;;;;;5075821;28;20041;-63
2022/01/28 09:49:39;;;;;;;211.73;200.25;;;6.20;99.90;;;;;;5076221;28;20453;-63
2022/01/28 09:52:06;;;;;;;230.32;217.93;;;6.30;99.90;;;;;;5075428;28;20099;-62
2022/01/28 09:54:32;;;;;;;208.57;196.20;;;6.30;99.90;;;;;;5074952;28;20685;-63
2022/01/28 09:56:59;;;;;;;182.95;172.73;;;6.40;99.90;;;;;;5075354;28;20041;-62
2022/01/28 09:59:25;;;;;;;153.25;144.32;;;6.50;99.90;;;;;;5075410;28;20090;-62
2022/01/28 10:01:53;;;;;;;207.52;196.23;;;6.50;99.90;;;;;;5074855;28;20502;-62
2022/01/28 10:04:19;;;;;;;221.05;208.88;;;6.50;99.90;;;;;;5056798;28;20115;-62
2022/01/28 10:06:46;;;;;;;205.77;195.35;;;6.60;99.90;;;;;;5054937;28;20057;-62
2022/01/28 10:09:14;;;;;;;189.75;179.80;;;6.70;99.90;;;;;;5055659;28;20402;-63
2022/01/28 10:11:43;;;;;;;233.43;220.82;;;6.70;99.90;;;;;;5055309;28;20471;-62
2022/01/28 10:14:19;;;;;;;205.13;194.15;;;6.70;99.90;;;;;;5064703;28;20101;-63
2022/01/28 10:16:56;;;;;;;189.85;178.82;;;6.70;99.90;;;;;;5075740;28;20502;-62
2022/01/28 10:19:25;;;;;;;157.18;148.10;;;6.70;99.90;;;;;;5054980;28;20494;-62
2022/01/28 10:21:51;;;;;;;133.88;125.75;;;6.80;99.90;;;;;;5055166;28;20107;-62
2022/01/28 10:24:24;;;;;;;151.57;142.98;;;7.00;99.90;;;;;;5075603;28;20052;-62
2022/01/28 10:26:52;;;;;;;199.00;188.73;;;7.40;99.90;;;;;;5074561;28;20037;-62
2022/01/28 10:29:22;;;;;;;160.80;151.60;;;7.30;99.90;;;;;;5075462;28;20507;-62
2022/01/28 10:31:50;;;;;;;143.45;135.32;;;7.10;99.90;;;;;;5074774;28;20048;-63
2022/01/28 10:34:22;;;;;;;127.72;120.13;;;7.10;99.90;;;;;;5074374;28;20040;-62
2022/01/28 10:36:49;;;;;;;102.00;96.25;;;7.30;99.90;;;;;;5074759;28;20083;-62
2022/01/28 10:39:19;;;;;;;105.00;99.05;;;7.50;99.90;;;;;;5075597;28;20127;-63
2022/01/28 10:41:50;;;;;;;99.70;93.38;;;7.80;99.90;;;;;;5055010;28;20381;-63
2022/01/28 10:44:16;;;;;;;100.85;94.22;;;8.10;99.90;;;;;;5055244;28;20045;-63
2022/01/28 10:46:50;;;;;;;81.07;76.05;;;8.10;99.90;;;;;;5055485;28;20088;-63
2022/01/28 10:49:16;;;;;;;93.07;87.05;;;8.00;99.90;;;;;;5061709;28;20033;-63
2022/01/28 10:51:45;;;;;;;77.80;72.72;;;7.90;99.90;;;;;;5075321;28;20060;-63
2022/01/28 10:54:12;;;;;;;72.93;68.13;;;7.70;99.90;;;;;;5075127;28;20037;-62
2022/01/28 10:56:57;;;;;;;83.05;78.13;;;7.60;99.90;;;;;;5072579;28;20391;-62
2022/01/28 10:59:27;;;;;;;90.70;84.82;;;7.40;99.90;;;;;;5056378;28;20479;-62
2022/01/28 11:01:53;;;;;;;82.90;77.30;;;7.40;99.90;;;;;;5054356;28;20103;-62
2022/01/28 11:04:20;;;;;;;81.40;75.65;;;7.40;99.90;;;;;;5054485;28;20045;-63
2022/01/28 11:06:47;;;;;;;95.25;89.43;;;7.40;99.90;;;;;;5060167;28;20174;-62
2022/01/28 11:09:15;;;;;;;72.75;67.32;;;7.50;99.90;;;;;;5073741;28;20131;-62
2022/01/28 11:11:41;;;;;;;75.45;70.97;;;7.40;99.90;;;;;;5074649;28;20072;-62
2022/01/28 11:14:07;;;;;;;71.72;67.03;;;7.50;99.90;;;;;;5074832;28;20056;-62
2022/01/28 11:16:34;;;;;;;73.00;68.50;;;7.40;99.90;;;;;;5073366;28;20054;-62
2022/01/28 11:19:00;;;;;;;79.32;73.70;;;7.40;99.90;;;;;;5043938;28;20045;-62
2022/01/28 11:21:58;;;;;;;75.13;70.45;;;7.30;99.90;;;;;;5054726;28;20092;-62
2022/01/28 11:25:07;;;;;;;71.78;66.78;;;7.30;99.90;;;;;;5058574;28;20510;-62
2022/01/28 11:27:40;;;;;;;72.85;68.22;;;7.30;99.90;;;;;;5074182;28;20051;-62
2022/01/28 11:30:19;;;;;;;80.28;75.13;;;7.30;99.90;;;;;;5073795;28;20044;-62
2022/01/28 11:32:59;;;;;;;69.80;65.82;;;7.30;99.90;;;;;;5073711;28;20551;-62
2022/01/28 11:35:25;;;;;;;70.28;65.70;;;7.20;99.90;;;;;;5073331;28;20101;-62
2022/01/28 11:37:53;;;;;;;79.82;75.20;;;7.10;99.90;;;;;;5053299;28;20116;-62
2022/01/28 11:40:19;;;;;;;101.80;96.32;;;7.20;99.90;;;;;;5053405;28;20116;-62
2022/01/28 11:42:45;;;;;;;93.57;87.95;;;7.10;99.90;;;;;;5064537;28;20147;-62
2022/01/28 11:45:12;;;;;;;106.70;99.78;;;7.20;99.90;;;;;;5069816;28;20048;-62
2022/01/28 11:47:41;;;;;;;92.72;87.50;;;7.10;99.90;;;;;;5052814;28;20175;-62
2022/01/28 11:50:09;;;;;;;104.78;98.90;;;7.20;99.90;;;;;;5053453;28;20052;-62
2022/01/28 11:52:41;;;;;;;99.20;94.18;;;7.20;99.90;;;;;;5053737;28;20053;-61
2022/01/28 11:55:17;;;;;;;77.07;72.32;;;7.30;99.90;;;;;;5053689;28;20047;-61
2022/01/28 11:57:52;;;;;;;99.55;93.68;;;7.40;99.90;;;;;;5053925;28;20052;-62
2022/01/28 12:00:21;;;;;;;95.78;89.63;;;7.40;99.90;;;;;;5062527;28;20045;-62
2022/01/28 12:02:49;;;;;;;75.93;71.25;;;7.50;99.90;;;;;;5073595;28;20060;-62
2022/01/28 12:05:30;;;;;;;72.72;68.05;;;7.60;99.90;;;;;;5072741;28;20040;-62
2022/01/28 12:07:58;;;;;;;73.85;69.72;;;7.70;99.90;;;;;;5073441;28;20504;-62
2022/01/28 12:10:25;;;;;;;68.65;64.47;;;7.70;99.90;;;;;;5053248;28;20483;-62
2022/01/28 12:15:25;;;;;;;62.63;57.95;;;7.90;99.90;;;;;;5053574;28;20044;-62
2022/01/28 12:18:03;;;;;;;67.78;63.80;;;7.90;99.90;;;;;;5046096;28;20380;-62
2022/01/28 12:20:42;;;;;;;69.22;60.45;;;7.80;99.90;;;;;;5049785;28;20499;-62
2022/01/28 12:23:09;;;;;;;65.97;60.97;;;7.80;99.90;;;;;;5053458;28;20045;-62
2022/01/28 12:25:35;;;;;;;66.53;61.97;;;7.70;99.90;;;;;;5052908;28;20056;-62
2022/01/28 12:28:19;;;;;;;74.95;70.65;;;7.60;99.90;;;;;;5071508;28;20049;-62
2022/01/28 12:30:46;;;;;;;92.30;87.00;;;7.50;99.90;;;;;;5073117;28;20058;-62
2022/01/28 12:33:13;;;;;;;80.82;75.50;;;7.40;99.90;;;;;;5068551;28;20099;-62
2022/01/28 12:35:41;;;;;;;81.80;76.82;;;7.40;99.90;;;;;;5052645;28;20456;-62
2022/01/28 12:38:08;;;;;;;82.47;76.93;;;7.30;99.90;;;;;;5052911;28;20045;-62
2022/01/28 12:40:36;;;;;;;91.57;85.97;;;7.30;99.90;;;;;;5052337;28;20056;-62
2022/01/28 12:43:03;;;;;;;98.18;91.68;;;7.30;99.90;;;;;;5052762;28;20482;-62
2022/01/28 12:45:29;;;;;;;99.45;93.85;;;7.50;99.90;;;;;;5070061;28;20482;-62
2022/01/28 12:47:55;;;;;;;82.97;78.00;;;7.70;99.90;;;;;;5071989;28;20056;-62
2022/01/28 12:50:22;;;;;;;83.50;77.63;;;7.80;99.90;;;;;;5073118;28;20089;-61
2022/01/28 12:52:47;;;;;;;84.95;79.93;;;7.70;99.90;;;;;;5072342;28;20044;-61
2022/01/28 12:55:14;;;;;;;88.05;82.78;;;7.50;99.90;;;;;;5071981;28;20049;-62
2022/01/28 12:57:47;;;;;;;92.30;86.70;;;7.30;99.90;;;;;;5072941;28;20390;-62
2022/01/28 13:00:14;;;;;;;100.68;95.05;;;7.10;99.90;;;;;;5072733;28;20090;-62
2022/01/28 13:02:41;;;;;;;106.60;100.70;;;7.10;99.90;;;;;;5071603;28;20048;-62
2022/01/28 13:10:24;;;;;;;97.10;91.18;;;7.20;99.90;;;;;;5070956;28;20071;-62
2022/01/28 13:12:52;;;;;;;91.28;85.60;;;7.20;99.90;;;;;;5072899;28;20159;-63
2022/01/28 13:15:19;;;;;;;90.57;85.15;;;7.20;99.90;;;;;;5055881;28;20486;-62
2022/01/28 13:17:54;;;;;;;113.60;107.10;;;7.10;99.90;;;;;;5050265;28;20055;-61
2022/01/28 13:20:20;;;;;;;95.50;89.22;;;7.20;99.90;;;;;;5054445;28;20041;-62
2022/01/28 13:22:52;;;;;;;91.47;85.70;;;7.20;99.90;;;;;;5051702;28;20126;-62
2022/01/28 13:25:22;;;;;;;90.15;84.72;;;7.20;99.90;;;;;;5052262;28;20045;-62
2022/01/28 13:27:53;;;;;;;99.88;94.63;;;7.10;99.90;;;;;;5052465;28;20052;-62
2022/01/28 13:30:19;;;;;;;110.28;103.72;;;7.10;99.90;;;;;;5051897;28;20041;-62
2022/01/28 13:32:50;;;;;;;92.43;86.93;;;7.00;99.90;;;;;;5052301;28;20051;-61
2022/01/28 13:35:20;;;;;;;110.10;103.68;;;7.00;99.90;;;;;;5052363;28;20041;-62
2022/01/28 13:37:50;;;;;;;111.47;105.10;;;6.90;99.90;;;;;;5062220;28;20080;-62
2022/01/28 13:40:24;;;;;;;99.60;93.88;;;7.00;99.90;;;;;;5072218;28;20048;-62
2022/01/28 13:43:06;;;;;;;113.05;106.35;;;7.00;99.90;;;;;;5072562;28;20051;-62
2022/01/28 13:45:43;;;;;;;117.47;110.93;;;7.00;99.90;;;;;;5071036;28;20083;-62